Time;durP1;ratioP1;P1;durP2;ratioP2;P2;SDS_P1;SDS_P2;PMS_P1;PMS_P2;Temp;Humidity;BMP_temperature;BMP_pressure;BME280_temperature;BME280_humidity;BME280_pressure;Samples;Min_cycle;Max_cycle;Signal;HPM_P1;HPM_P2
2022/04/23 00:00:57;;;;;;;15.77;12.57;;;;;;;;;;10576306;28;20398;-92
2022/04/23 00:05:59;;;;;;;16.10;11.93;;;;;;;;;;10546754;28;20426;-93
2022/04/23 00:11:01;;;;;;;15.52;11.77;;;;;;;;;;10574579;28;20407;-92
2022/04/23 00:16:06;;;;;;;18.27;13.10;;;;;;;;;;10558145;28;20406;-93
2022/04/23 00:21:07;;;;;;;17.42;12.77;;;;;;;;;;10567642;27;20419;-92
2022/04/23 00:26:09;;;;;;;15.57;12.10;;;;;;;;;;10567735;27;20445;-92
2022/04/23 00:31:14;;;;;;;17.17;12.88;;;;;;;;;;10549529;28;20440;-93
2022/04/23 00:36:16;;;;;;;15.25;12.73;;;;;;;;;;10555045;28;20414;-93
2022/04/23 00:46:35;;;;;;;20.00;13.32;;;;;;;;;;10547889;28;20412;-93
2022/04/23 00:51:39;;;;;;;18.40;13.88;;;;;;;;;;10555535;28;20937;-93
2022/04/23 00:56:41;;;;;;;16.93;12.73;;;;;;;;;;10544885;28;20479;-93
2022/04/23 01:01:45;;;;;;;16.63;13.30;;;;;;;;;;10547230;28;20491;-93
2022/04/23 01:06:47;;;;;;;20.88;14.23;;;;;;;;;;10559127;28;20414;-93
2022/04/23 01:11:49;;;;;;;17.20;13.75;;;;;;;;;;10551244;28;20438;-92
2022/04/23 01:16:53;;;;;;;19.58;14.18;;;;;;;;;;10548986;28;20903;-93
2022/04/23 01:21:56;;;;;;;18.45;13.90;;;;;;;;;;10552330;28;20831;-93
2022/04/23 01:26:59;;;;;;;21.73;14.18;;;;;;;;;;10546960;28;20420;-92
2022/04/23 01:32:04;;;;;;;17.90;14.47;;;;;;;;;;10552734;28;20784;-92
2022/04/23 01:37:07;;;;;;;18.65;13.30;;;;;;;;;;10555790;28;20403;-91
2022/04/23 01:42:09;;;;;;;19.02;14.32;;;;;;;;;;10538298;28;20406;-93
2022/04/23 01:47:11;;;;;;;16.97;14.07;;;;;;;;;;10553343;28;20536;-91
2022/04/23 01:52:15;;;;;;;20.70;14.20;;;;;;;;;;10545007;28;20398;-92
2022/04/23 01:57:16;;;;;;;20.60;14.82;;;;;;;;;;10548979;28;20396;-93
2022/04/23 02:02:18;;;;;;;20.13;15.20;;;;;;;;;;10555978;28;20969;-93
2022/04/23 02:07:22;;;;;;;20.70;15.20;;;;;;;;;;10565485;28;20433;-93
2022/04/23 02:12:24;;;;;;;21.85;15.80;;;;;;;;;;10568700;28;20435;-93
2022/04/23 02:17:34;;;;;;;22.80;15.55;;;;;;;;;;10568517;28;20402;-92
2022/04/23 02:22:38;;;;;;;20.02;16.15;;;;;;;;;;10570396;28;20672;-93
2022/04/23 02:27:42;;;;;;;18.75;14.73;;;;;;;;;;10593661;28;20429;-92
2022/04/23 02:32:45;;;;;;;22.58;15.65;;;;;;;;;;10590355;27;20906;-93
2022/04/23 02:37:48;;;;;;;17.45;14.15;;;;;;;;;;10567706;28;20410;-92
2022/04/23 02:42:51;;;;;;;19.47;15.20;;;;;;;;;;10568870;28;20406;-92
2022/04/23 02:47:54;;;;;;;23.33;17.02;;;;;;;;;;10567507;28;20916;-93
2022/04/23 02:52:59;;;;;;;22.90;17.48;;;;;;;;;;10567365;28;20410;-91
2022/04/23 02:58:02;;;;;;;22.08;16.90;;;;;;;;;;10570726;28;20665;-92
2022/04/23 03:03:05;;;;;;;23.00;16.65;;;;;;;;;;10575578;28;20468;-92
2022/04/23 03:08:09;;;;;;;24.70;16.70;;;;;;;;;;10574491;27;20419;-92
2022/04/23 03:13:11;;;;;;;22.95;16.90;;;;;;;;;;10574821;28;20403;-91
2022/04/23 03:18:14;;;;;;;22.20;17.77;;;;;;;;;;10574218;28;20428;-92
2022/04/23 03:23:18;;;;;;;23.02;17.73;;;;;;;;;;10573685;28;20962;-92
2022/04/23 03:28:20;;;;;;;26.73;17.80;;;;;;;;;;10574038;28;20473;-91
2022/04/23 03:33:22;;;;;;;27.33;18.65;;;;;;;;;;10572755;28;20434;-91
2022/04/23 03:38:25;;;;;;;24.98;18.27;;;;;;;;;;10573228;28;20494;-91
2022/04/23 03:43:27;;;;;;;27.15;16.83;;;;;;;;;;10573380;28;20481;-92
2022/04/23 03:48:29;;;;;;;23.80;17.27;;;;;;;;;;10573099;28;20477;-91
2022/04/23 03:53:34;;;;;;;24.33;17.87;;;;;;;;;;10559153;28;20479;-91
2022/04/23 03:58:36;;;;;;;25.33;18.23;;;;;;;;;;10572115;28;20574;-91
2022/04/23 04:03:38;;;;;;;28.02;19.13;;;;;;;;;;10568808;28;20448;-92
2022/04/23 04:08:41;;;;;;;29.73;19.30;;;;;;;;;;10560961;28;20486;-91
2022/04/23 04:13:43;;;;;;;27.25;19.83;;;;;;;;;;10549456;28;20477;-92
2022/04/23 04:18:46;;;;;;;27.53;18.47;;;;;;;;;;10550370;28;20530;-92
2022/04/23 04:23:50;;;;;;;25.97;19.10;;;;;;;;;;10551814;28;20475;-91
2022/04/23 04:28:51;;;;;;;23.97;18.43;;;;;;;;;;10553688;28;20770;-92
2022/04/23 04:33:53;;;;;;;27.67;18.25;;;;;;;;;;10549921;28;20407;-92
2022/04/23 04:38:57;;;;;;;24.17;17.70;;;;;;;;;;10555043;28;20493;-92
2022/04/23 04:43:58;;;;;;;25.08;18.00;;;;;;;;;;10548729;28;20767;-92
2022/04/23 04:49:01;;;;;;;25.93;18.23;;;;;;;;;;10549022;28;20423;-92
2022/04/23 04:54:05;;;;;;;27.08;18.58;;;;;;;;;;10552183;28;20814;-92
2022/04/23 04:59:07;;;;;;;24.38;18.38;;;;;;;;;;10548185;28;20781;-92
2022/04/23 05:04:09;;;;;;;28.08;18.92;;;;;;;;;;10549853;28;20481;-92
2022/04/23 05:09:13;;;;;;;27.03;19.30;;;;;;;;;;10549593;28;20481;-92
2022/04/23 05:14:16;;;;;;;25.23;18.87;;;;;;;;;;10548364;28;20506;-92
2022/04/23 05:19:18;;;;;;;27.42;19.48;;;;;;;;;;10542772;28;20477;-91
2022/04/23 05:24:24;;;;;;;24.63;19.07;;;;;;;;;;10558829;28;20514;-91
2022/04/23 05:29:25;;;;;;;28.95;20.02;;;;;;;;;;10551665;28;20416;-92
2022/04/23 05:34:28;;;;;;;25.87;19.07;;;;;;;;;;10559664;28;20401;-91
2022/04/23 05:39:31;;;;;;;29.42;20.42;;;;;;;;;;10560589;28;20414;-92
2022/04/23 05:44:33;;;;;;;27.40;20.52;;;;;;;;;;10578846;27;20443;-94
2022/04/23 05:49:39;;;;;;;27.48;20.98;;;;;;;;;;10542146;28;20440;-95
2022/04/23 05:54:42;;;;;;;27.95;20.20;;;;;;;;;;10547272;28;20443;-95
2022/04/23 05:59:44;;;;;;;29.63;21.75;;;;;;;;;;10544789;28;20398;-94
2022/04/23 06:04:48;;;;;;;33.58;22.80;;;;;;;;;;10554759;28;20467;-95
2022/04/23 06:09:52;;;;;;;30.02;22.00;;;;;;;;;;10547919;28;20410;-95
2022/04/23 06:14:54;;;;;;;32.97;22.15;;;;;;;;;;10543249;28;20435;-95
2022/04/23 06:19:56;;;;;;;34.33;22.42;;;;;;;;;;10545509;28;20442;-95
2022/04/23 06:25:00;;;;;;;33.92;22.83;;;;;;;;;;10551004;28;20489;-94
2022/04/23 06:30:03;;;;;;;33.53;23.33;;;;;;;;;;10546276;28;20447;-95
2022/04/23 06:35:06;;;;;;;32.42;23.00;;;;;;;;;;10556901;28;20406;-96
2022/04/23 06:40:13;;;;;;;32.57;22.80;;;;;;;;;;10561896;27;20508;-95
2022/04/23 06:45:14;;;;;;;34.10;23.05;;;;;;;;;;10555582;28;20462;-95
2022/04/23 06:50:16;;;;;;;32.10;22.48;;;;;;;;;;10561664;28;20736;-96
2022/04/23 06:55:20;;;;;;;32.63;22.93;;;;;;;;;;10565161;28;20766;-95
2022/04/23 07:00:22;;;;;;;30.77;22.03;;;;;;;;;;10554565;28;20511;-93
2022/04/23 07:05:24;;;;;;;32.50;22.83;;;;;;;;;;10546582;28;20416;-94
2022/04/23 07:10:29;;;;;;;35.78;23.27;;;;;;;;;;10579357;28;20398;-93
2022/04/23 07:15:31;;;;;;;33.17;23.15;;;;;;;;;;10551858;28;20396;-93
2022/04/23 07:20:34;;;;;;;34.20;23.00;;;;;;;;;;10557477;28;20438;-94
2022/04/23 07:25:37;;;;;;;32.97;22.23;;;;;;;;;;10549640;28;21023;-96
2022/04/23 07:30:39;;;;;;;32.77;22.70;;;;;;;;;;10556440;28;20446;-95
2022/04/23 07:41:02;;;;;;;36.13;24.08;;;;;;;;;;10555421;28;20515;-94
2022/04/23 07:46:04;;;;;;;28.50;21.83;;;;;;;;;;10551637;28;20404;-96
2022/04/23 07:51:08;;;;;;;30.13;20.73;;;;;;;;;;10556490;28;20398;-94
2022/04/23 07:56:12;;;;;;;28.88;20.70;;;;;;;;;;10554096;28;20491;-94
2022/04/23 08:01:14;;;;;;;28.15;20.58;;;;;;;;;;10555449;28;20395;-95
2022/04/23 08:06:16;;;;;;;22.38;17.40;;;;;;;;;;10558175;28;20739;-94
2022/04/23 08:11:22;;;;;;;16.83;13.57;;;;;;;;;;10558330;28;20476;-95
2022/04/23 08:16:26;;;;;;;19.27;14.90;;;;;;;;;;10561069;28;20430;-94
2022/04/23 08:21:29;;;;;;;16.30;12.13;;;;;;;;;;10557025;28;20419;-93
2022/04/23 08:26:32;;;;;;;16.50;12.85;;;;;;;;;;10555573;28;20448;-94
2022/04/23 08:31:35;;;;;;;15.73;12.17;;;;;;;;;;10560171;28;20449;-94
2022/04/23 08:36:36;;;;;;;14.77;12.27;;;;;;;;;;10562268;28;20458;-94
2022/04/23 08:41:41;;;;;;;14.07;12.38;;;;;;;;;;10559449;28;20403;-93
2022/04/23 08:46:44;;;;;;;14.82;11.55;;;;;;;;;;10546606;28;20419;-93
2022/04/23 08:51:51;;;;;;;12.95;9.95;;;;;;;;;;10554481;28;20429;-94
2022/04/23 08:56:55;;;;;;;14.10;11.53;;;;;;;;;;10551461;27;20931;-93
2022/04/23 09:01:58;;;;;;;15.25;12.35;;;;;;;;;;10556241;28;21106;-92
2022/04/23 09:07:14;;;;;;;13.37;11.60;;;;;;;;;;10559252;28;20420;-96
2022/04/23 09:12:18;;;;;;;13.10;11.70;;;;;;;;;;10555713;22;20430;-90
2022/04/23 09:28:21;;;;;;;15.10;11.70;;;;;;;;;;10463473;28;20442;-89
2022/04/23 09:33:28;;;;;;;12.95;11.18;;;;;;;;;;10458216;28;20401;-74
2022/04/23 09:38:31;;;;;;;11.13;9.75;;;;;;;;;;10458750;28;20402;-74
2022/04/23 09:43:35;;;;;;;13.50;11.00;;;;;;;;;;10460346;28;20403;-89
2022/04/23 09:48:38;;;;;;;12.82;11.43;;;;;;;;;;10453537;28;20454;-89
2022/04/23 09:53:40;;;;;;;13.98;11.55;;;;;;;;;;10457441;28;20431;-89
2022/04/23 09:58:44;;;;;;;12.68;11.15;;;;;;;;;;10461944;28;20498;-90
2022/04/23 10:03:47;;;;;;;13.75;10.73;;;;;;;;;;10459256;28;20447;-90
2022/04/23 10:08:51;;;;;;;13.05;10.95;;;;;;;;;;10464308;28;20434;-92
2022/04/23 10:13:59;;;;;;;11.63;10.07;;;;;;;;;;10471170;28;20407;-95
2022/04/23 10:19:02;;;;;;;11.88;10.25;;;;;;;;;;10450960;28;20409;-95
2022/04/23 10:24:08;;;;;;;13.43;10.55;;;;;;;;;;10448781;28;20500;-94
2022/04/23 10:29:14;;;;;;;11.67;9.90;;;;;;;;;;10451702;28;20418;-93
2022/04/23 10:34:32;;;;;;;8.88;7.97;;;;;;;;;;10435808;28;20476;-94
2022/04/23 10:39:34;;;;;;;8.95;8.02;;;;;;;;;;10455605;28;20438;-88
2022/04/23 10:44:37;;;;;;;9.90;7.50;;;;;;;;;;10469574;28;20479;-86
2022/04/23 10:49:39;;;;;;;9.15;7.97;;;;;;;;;;10466574;28;20517;-85
2022/04/23 10:54:59;;;;;;;9.63;7.50;;;;;;;;;;10463978;28;20493;-86
2022/04/23 11:00:13;;;;;;;9.10;7.70;;;;;;;;;;10465761;28;20945;-85
2022/04/23 11:33:30;;;;;;;6.30;5.40;;;;;;;;;;11314210;22;20423;-96
2022/04/23 11:38:32;;;;;;;6.45;5.15;;;;;;;;;;10607201;28;20416;-96
2022/04/23 11:43:37;;;;;;;6.03;4.90;;;;;;;;;;10590786;27;20431;-96
2022/04/23 12:40:45;;;;;;;8.97;6.37;;;;;;;;;;10553205;28;20389;-96
2022/04/23 12:45:49;;;;;;;9.18;6.63;;;;;;;;;;10574482;28;20439;-96
2022/04/23 12:51:04;;;;;;;7.07;6.15;;;;;;;;;;10587637;22;20880;-96
2022/04/23 12:56:09;;;;;;;6.00;5.40;;;;;;;;;;10564954;28;20408;-96
2022/04/23 13:01:14;;;;;;;6.38;5.55;;;;;;;;;;10566382;28;20395;-96
2022/04/23 13:11:36;;;;;;;6.55;5.72;;;;;;;;;;10560302;28;20434;-81
2022/04/23 13:16:41;;;;;;;6.43;5.72;;;;;;;;;;10524146;28;20430;-84
2022/04/23 13:21:43;;;;;;;6.70;5.00;;;;;;;;;;11071040;22;20480;-92
2022/04/23 13:26:46;;;;;;;5.40;4.88;;;;;;;;;;10542415;28;20455;-92
2022/04/23 13:31:49;;;;;;;5.07;4.60;;;;;;;;;;10543031;28;20419;-91
2022/04/23 13:36:55;;;;;;;8.10;5.90;;;;;;;;;;10540813;28;20428;-94
2022/04/23 13:41:57;;;;;;;6.72;5.20;;;;;;;;;;10541690;28;20422;-95
2022/04/23 13:47:06;;;;;;;4.95;4.53;;;;;;;;;;10561035;28;20416;-95
2022/04/23 13:52:09;;;;;;;6.97;5.15;;;;;;;;;;10568499;28;20431;-94
2022/04/23 13:57:12;;;;;;;4.87;3.90;;;;;;;;;;10570269;28;20379;-95
2022/04/23 14:12:56;;;;;;;4.30;3.90;;;;;;;;;;10551648;28;20380;-93
2022/04/23 14:18:01;;;;;;;4.40;4.00;;;;;;;;;;10551817;28;20404;-96
2022/04/23 14:23:03;;;;;;;5.50;4.47;;;;;;;;;;10558473;28;20411;-94
2022/04/23 14:28:06;;;;;;;4.47;3.85;;;;;;;;;;10548228;28;20442;-95
2022/04/23 14:33:10;;;;;;;4.93;4.38;;;;;;;;;;10548575;28;20403;-93
2022/04/23 14:38:18;;;;;;;5.40;4.43;;;;;;;;;;10553091;28;20462;-93
2022/04/23 14:43:20;;;;;;;4.60;4.07;;;;;;;;;;10527562;28;20732;-93
2022/04/23 14:48:23;;;;;;;6.47;4.40;;;;;;;;;;10550170;28;20428;-94
2022/04/23 14:53:27;;;;;;;4.53;4.05;;;;;;;;;;10562792;28;20409;-94
2022/04/23 14:58:30;;;;;;;4.60;3.80;;;;;;;;;;10565778;28;20458;-96
2022/04/23 15:03:38;;;;;;;3.97;3.50;;;;;;;;;;10548698;28;20420;-96
2022/04/23 15:08:40;;;;;;;6.28;3.70;;;;;;;;;;10563563;28;20420;-95
2022/04/23 15:13:43;;;;;;;6.97;4.13;;;;;;;;;;10552901;27;20398;-95
2022/04/23 15:18:46;;;;;;;5.50;4.13;;;;;;;;;;10515809;28;20422;-81
2022/04/23 15:23:48;;;;;;;6.97;4.57;;;;;;;;;;10547082;28;20839;-79
2022/04/23 15:28:50;;;;;;;5.63;4.85;;;;;;;;;;10548930;28;20976;-79
2022/04/23 15:33:53;;;;;;;6.23;5.20;;;;;;;;;;10551751;28;20799;-95
2022/04/23 15:38:55;;;;;;;9.77;6.77;;;;;;;;;;10553957;28;20443;-96
2022/04/23 15:43:58;;;;;;;8.27;6.37;;;;;;;;;;10539737;28;20421;-96
2022/04/23 15:49:04;;;;;;;8.33;6.27;;;;;;;;;;10531890;28;20432;-95
2022/04/23 15:54:06;;;;;;;7.60;5.70;;;;;;;;;;10527808;28;20975;-95
2022/04/23 15:59:08;;;;;;;7.78;5.60;;;;;;;;;;10528707;28;20416;-95
2022/04/23 16:04:12;;;;;;;7.60;5.90;;;;;;;;;;10539402;28;20499;-95
2022/04/23 16:09:15;;;;;;;8.07;6.13;;;;;;;;;;10543741;28;20904;-95
2022/04/23 16:14:23;;;;;;;7.20;6.40;;;;;;;;;;10543839;28;20410;-95
2022/04/23 16:19:28;;;;;;;10.63;7.90;;;;;;;;;;10537342;28;20475;-96
2022/04/23 16:30:09;;;;;;;;;;;;;;;;;;;;;
2022/04/23 16:51:16;;;;;;;11.05;9.52;;;;;;;;;;10523267;28;20406;-94
2022/04/23 16:56:18;;;;;;;13.10;9.90;;;;;;;;;;10524865;28;20503;-94
2022/04/23 17:01:20;;;;;;;12.07;10.30;;;;;;;;;;10508894;28;20441;-95
2022/04/23 17:06:23;;;;;;;15.75;11.45;;;;;;;;;;10521759;28;20418;-93
2022/04/23 17:11:25;;;;;;;15.80;11.77;;;;;;;;;;10538467;28;20969;-90
2022/04/23 17:16:27;;;;;;;17.15;12.38;;;;;;;;;;10510283;28;20502;-90
2022/04/23 17:21:30;;;;;;;17.33;13.38;;;;;;;;;;10512960;28;20508;-90
2022/04/23 17:26:33;;;;;;;18.95;15.07;;;;;;;;;;10508550;28;20408;-90
2022/04/23 17:31:34;;;;;;;16.97;13.23;;;;;;;;;;10546914;28;20412;-91
2022/04/23 17:36:38;;;;;;;16.85;13.32;;;;;;;;;;10515859;28;20408;-88
2022/04/23 17:41:43;;;;;;;14.75;12.48;;;;;;;;;;10516935;28;20959;-88
2022/04/23 17:46:44;;;;;;;15.07;13.47;;;;;;;;;;10543386;28;20450;-90
2022/04/23 17:51:48;;;;;;;14.38;12.43;;;;;;;;;;10537186;28;20493;-90
2022/04/23 17:56:50;;;;;;;14.60;12.55;;;;;;;;;;10536245;28;20953;-76
2022/04/23 18:07:26;;;;;;;14.60;12.23;;;;;;;;;;10554429;28;20467;-90
2022/04/23 18:12:29;;;;;;;15.32;12.85;;;;;;;;;;10584722;28;20403;-92
2022/04/23 18:17:31;;;;;;;13.32;11.93;;;;;;;;;;10574264;28;20431;-91
2022/04/23 18:22:34;;;;;;;14.90;12.85;;;;;;;;;;10566788;28;20417;-90
2022/04/23 18:27:38;;;;;;;12.63;11.05;;;;;;;;;;10532808;28;21220;-78
2022/04/23 18:32:40;;;;;;;20.40;16.23;;;;;;;;;;10506868;28;20893;-86
2022/04/23 18:37:43;;;;;;;16.45;12.38;;;;;;;;;;10520206;28;20517;-88
2022/04/23 18:42:45;;;;;;;11.65;10.25;;;;;;;;;;10526442;28;20515;-86
2022/04/23 18:47:47;;;;;;;11.88;10.30;;;;;;;;;;10513742;28;20422;-85
2022/04/23 18:52:51;;;;;;;12.13;10.20;;;;;;;;;;10533429;28;20402;-87
2022/04/23 18:57:54;;;;;;;12.82;9.68;;;;;;;;;;10535136;28;21071;-84
2022/04/23 19:02:55;;;;;;;11.32;9.38;;;;;;;;;;10542569;28;20888;-87
2022/04/23 19:07:59;;;;;;;11.07;9.77;;;;;;;;;;10544276;28;20426;-87
2022/04/23 19:13:01;;;;;;;13.20;10.90;;;;;;;;;;10531323;28;20400;-85
2022/04/23 19:18:03;;;;;;;12.70;10.45;;;;;;;;;;10516743;28;20414;-86
2022/04/23 19:28:26;;;;;;;12.50;10.60;;;;;;;;;;10542324;28;20416;-86
2022/04/23 19:33:27;;;;;;;14.07;11.18;;;;;;;;;;10531238;28;20408;-87
2022/04/23 19:38:31;;;;;;;12.07;10.40;;;;;;;;;;10533447;28;20434;-85
2022/04/23 19:43:32;;;;;;;12.50;11.00;;;;;;;;;;10526459;28;20942;-86
2022/04/23 19:48:34;;;;;;;11.63;10.43;;;;;;;;;;10520072;28;20453;-87
2022/04/23 19:53:38;;;;;;;13.82;11.43;;;;;;;;;;10522641;28;20444;-84
2022/04/23 19:58:41;;;;;;;12.77;11.32;;;;;;;;;;10527972;28;20412;-87
2022/04/23 20:03:42;;;;;;;13.17;10.80;;;;;;;;;;10513699;28;20428;-85
2022/04/23 20:08:46;;;;;;;12.65;10.95;;;;;;;;;;10521091;28;20420;-87
2022/04/23 20:13:48;;;;;;;13.40;11.15;;;;;;;;;;10521705;28;20471;-87
2022/04/23 20:18:50;;;;;;;16.40;10.82;;;;;;;;;;10520934;28;20835;-90
2022/04/23 20:23:54;;;;;;;12.40;9.88;;;;;;;;;;10542960;28;20412;-92
2022/04/23 20:29:06;;;;;;;11.60;9.67;;;;;;;;;;10542023;28;20423;-93
2022/04/23 20:34:09;;;;;;;12.05;8.93;;;;;;;;;;10538545;28;20400;-83
2022/04/23 20:39:14;;;;;;;11.98;8.30;;;;;;;;;;10533441;28;20963;-91
2022/04/23 20:44:17;;;;;;;10.18;8.27;;;;;;;;;;10544328;28;20467;-92
2022/04/23 20:49:20;;;;;;;9.55;6.90;;;;;;;;;;10547674;28;20428;-91
2022/04/23 20:54:23;;;;;;;8.38;6.97;;;;;;;;;;10550788;28;20426;-90
2022/04/23 20:59:25;;;;;;;11.10;7.47;;;;;;;;;;10547764;28;20635;-91
2022/04/23 21:04:30;;;;;;;12.25;7.90;;;;;;;;;;10546135;28;20493;-90
2022/04/23 21:09:33;;;;;;;13.35;8.95;;;;;;;;;;10546372;28;20821;-91
2022/04/23 21:14:36;;;;;;;12.98;9.10;;;;;;;;;;10547037;28;20412;-91
2022/04/23 21:19:38;;;;;;;10.93;8.60;;;;;;;;;;10547598;28;20959;-92
2022/04/23 21:24:48;;;;;;;10.25;7.90;;;;;;;;;;10546156;28;20813;-91
2022/04/23 21:29:50;;;;;;;12.25;8.07;;;;;;;;;;10544021;28;20432;-91
2022/04/23 21:34:52;;;;;;;12.70;8.52;;;;;;;;;;10563491;28;20397;-91
2022/04/23 21:39:56;;;;;;;12.02;8.05;;;;;;;;;;10550927;28;20431;-91
2022/04/23 21:45:00;;;;;;;11.23;7.95;;;;;;;;;;10546275;28;20410;-92
2022/04/23 21:50:01;;;;;;;10.73;7.90;;;;;;;;;;10545308;28;20416;-92
2022/04/23 21:55:21;;;;;;;10.90;8.97;;;;;;;;;;10550105;28;20438;-92
2022/04/23 22:01:01;;;;;;;12.60;8.45;;;;;;;;;;10544333;28;20398;-91
2022/04/23 22:06:03;;;;;;;9.02;7.63;;;;;;;;;;10544868;28;20848;-91
2022/04/23 22:11:06;;;;;;;9.18;6.45;;;;;;;;;;10541040;28;20506;-92
2022/04/23 22:16:08;;;;;;;8.48;6.47;;;;;;;;;;10541653;28;20408;-90
2022/04/23 22:21:11;;;;;;;9.30;6.97;;;;;;;;;;10545355;28;20476;-91
2022/04/23 22:26:14;;;;;;;8.55;6.90;;;;;;;;;;10549013;28;20535;-91
2022/04/23 22:31:16;;;;;;;8.23;6.57;;;;;;;;;;10541318;28;20473;-91
2022/04/23 22:36:18;;;;;;;7.40;6.50;;;;;;;;;;10544293;28;20687;-91
2022/04/23 22:41:21;;;;;;;8.88;6.25;;;;;;;;;;10545248;28;20387;-92
2022/04/23 22:46:23;;;;;;;10.50;6.50;;;;;;;;;;10549175;28;20437;-91
2022/04/23 22:51:25;;;;;;;7.73;6.60;;;;;;;;;;10540483;28;20492;-91
2022/04/23 22:56:29;;;;;;;10.82;6.78;;;;;;;;;;10544365;28;20746;-91
2022/04/23 23:01:31;;;;;;;10.13;6.83;;;;;;;;;;10543939;28;20795;-91
2022/04/23 23:06:32;;;;;;;9.15;7.38;;;;;;;;;;10544997;28;20471;-90
2022/04/23 23:11:38;;;;;;;7.73;6.27;;;;;;;;;;10544064;28;20951;-91
2022/04/23 23:16:40;;;;;;;6.07;5.20;;;;;;;;;;10549555;28;20688;-91
2022/04/23 23:21:42;;;;;;;6.60;5.03;;;;;;;;;;10547428;28;20483;-91
2022/04/23 23:26:45;;;;;;;7.20;5.50;;;;;;;;;;10556083;28;20467;-91
2022/04/23 23:31:47;;;;;;;7.90;5.90;;;;;;;;;;10547484;28;20446;-92
2022/04/23 23:36:49;;;;;;;8.13;6.43;;;;;;;;;;10547668;28;20404;-91
2022/04/23 23:42:00;;;;;;;7.90;6.20;;;;;;;;;;10554114;28;20446;-93
2022/04/23 23:47:02;;;;;;;5.65;5.05;;;;;;;;;;10546244;28;20583;-92
2022/04/23 23:52:04;;;;;;;5.00;4.32;;;;;;;;;;10548260;28;20398;-92
2022/04/23 23:57:08;;;;;;;7.18;4.80;;;;;;;;;;10549653;28;20502;-92
